Roth, North Dakota
Current Conditions -  °F | °C
As of 3:58 AM on Friday 24 Oct 2014 (Local Time) from KMIB Reporting Station
Clear Clear  
Wind Chill: 43°   Ceiling: Unl
Heat Index: 47°   Visibility: 10mi
Dew Point: 35°   Wind: 8mph
Humidity: 62%   Direction: 240°WSW
Pressure: 29.75"   Gusts: NA
Location:  48.9505°N, 100.734°W
Report Text: KMIB 240858Z AUTO 24007KT 10SM CLR 09/02 A2975 RMK AO2 SLP081 T00850017 53001 $
Loading
Personal Weather Stations






























Interactive Weather Map
Tropical Storm Tracking
New forecast layout! Learn more

10-Day Weather Forecast

Advertisements
Track Severe Weather on mobile